sensor_id;sensor_type;location;lat;lon;timestamp;pressure;altitude;pressure_sealevel;temperature;humidity
69460;BME280;57182;55.712;37.612;2022-07-29T00:01:05;99984.28;;;18.58;70.75
69460;BME280;57182;55.712;37.612;2022-07-29T00:03:44;99963.59;;;18.52;69.87
69460;BME280;57182;55.712;37.612;2022-07-29T00:06:12;99969.13;;;18.40;69.74
69460;BME280;57182;55.712;37.612;2022-07-29T00:08:40;99988.22;;;18.54;67.88
69460;BME280;57182;55.712;37.612;2022-07-29T00:11:08;99992.97;;;18.89;67.96
69460;BME280;57182;55.712;37.612;2022-07-29T00:13:36;99976.06;;;18.80;67.55
69460;BME280;57182;55.712;37.612;2022-07-29T00:16:03;99958.69;;;18.76;67.27
69460;BME280;57182;55.712;37.612;2022-07-29T00:18:31;99985.72;;;18.72;67.15
69460;BME280;57182;55.712;37.612;2022-07-29T00:20:59;99997.19;;;18.82;66.64
69460;BME280;57182;55.712;37.612;2022-07-29T00:23:26;99992.41;;;18.76;66.80
69460;BME280;57182;55.712;37.612;2022-07-29T00:25:55;99981.09;;;18.74;66.14
69460;BME280;57182;55.712;37.612;2022-07-29T00:28:23;99995.06;;;18.76;66.02
69460;BME280;57182;55.712;37.612;2022-07-29T00:30:52;99978.41;;;18.74;65.46
69460;BME280;57182;55.712;37.612;2022-07-29T00:33:19;99991.56;;;18.75;65.78
69460;BME280;57182;55.712;37.612;2022-07-29T00:35:47;100005.56;;;18.68;66.02
69460;BME280;57182;55.712;37.612;2022-07-29T00:38:17;99968.06;;;18.52;65.77
69460;BME280;57182;55.712;37.612;2022-07-29T00:40:45;99977.59;;;18.54;65.66
69460;BME280;57182;55.712;37.612;2022-07-29T00:43:14;99995.78;;;18.68;65.63
69460;BME280;57182;55.712;37.612;2022-07-29T00:45:45;99983.84;;;18.44;65.30
69460;BME280;57182;55.712;37.612;2022-07-29T00:48:13;100007.81;;;18.63;65.55
69460;BME280;57182;55.712;37.612;2022-07-29T00:50:41;100025.28;;;18.56;65.92
69460;BME280;57182;55.712;37.612;2022-07-29T00:53:11;100008.03;;;18.41;65.08
69460;BME280;57182;55.712;37.612;2022-07-29T00:55:39;100025.63;;;18.32;65.49
69460;BME280;57182;55.712;37.612;2022-07-29T00:58:06;100007.44;;;18.28;65.21
69460;BME280;57182;55.712;37.612;2022-07-29T01:00:34;100015.25;;;18.19;65.47
69460;BME280;57182;55.712;37.612;2022-07-29T01:03:02;100035.84;;;18.27;65.34
69460;BME280;57182;55.712;37.612;2022-07-29T01:05:30;100022.25;;;18.11;66.02
69460;BME280;57182;55.712;37.612;2022-07-29T01:08:18;100028.50;;;18.00;67.25
69460;BME280;57182;55.712;37.612;2022-07-29T01:10:49;100037.41;;;17.90;67.45
69460;BME280;57182;55.712;37.612;2022-07-29T01:13:18;100042.22;;;17.75;68.71
69460;BME280;57182;55.712;37.612;2022-07-29T01:15:51;100014.66;;;17.46;68.91
69460;BME280;57182;55.712;37.612;2022-07-29T01:18:34;100024.41;;;17.45;70.11
69460;BME280;57182;55.712;37.612;2022-07-29T01:26:58;100045.09;;;17.21;71.76
69460;BME280;57182;55.712;37.612;2022-07-29T01:29:38;100049.28;;;17.24;71.56
69460;BME280;57182;55.712;37.612;2022-07-29T01:32:15;100053.91;;;17.22;71.24
69460;BME280;57182;55.712;37.612;2022-07-29T01:35:17;100052.78;;;17.04;72.39
69460;BME280;57182;55.712;37.612;2022-07-29T01:37:55;100050.03;;;17.15;71.48
69460;BME280;57182;55.712;37.612;2022-07-29T01:40:47;100054.06;;;17.09;72.25
69460;BME280;57182;55.712;37.612;2022-07-29T01:43:21;100030.06;;;16.79;71.91
69460;BME280;57182;55.712;37.612;2022-07-29T01:45:57;100053.31;;;16.86;72.54
69460;BME280;57182;55.712;37.612;2022-07-29T01:48:48;100029.78;;;16.61;73.54
69460;BME280;57182;55.712;37.612;2022-07-29T01:51:24;100050.75;;;16.64;73.76
69460;BME280;57182;55.712;37.612;2022-07-29T01:54:03;100046.91;;;16.68;73.08
69460;BME280;57182;55.712;37.612;2022-07-29T01:56:33;100043.50;;;16.66;73.04
69460;BME280;57182;55.712;37.612;2022-07-29T01:59:04;100027.38;;;16.58;73.30
69460;BME280;57182;55.712;37.612;2022-07-29T02:01:33;100048.81;;;16.66;74.56
69460;BME280;57182;55.712;37.612;2022-07-29T02:04:03;100024.03;;;16.56;73.57
69460;BME280;57182;55.712;37.612;2022-07-29T02:06:33;100033.66;;;16.57;73.64
69460;BME280;57182;55.712;37.612;2022-07-29T02:09:09;100031.16;;;16.45;74.91
69460;BME280;57182;55.712;37.612;2022-07-29T02:11:40;100045.25;;;16.45;74.87
69460;BME280;57182;55.712;37.612;2022-07-29T02:14:14;100048.69;;;16.46;75.34
69460;BME280;57182;55.712;37.612;2022-07-29T02:16:46;100056.78;;;16.44;74.92
69460;BME280;57182;55.712;37.612;2022-07-29T02:19:18;100027.88;;;16.41;74.63
69460;BME280;57182;55.712;37.612;2022-07-29T02:21:48;100049.78;;;16.65;74.40
69460;BME280;57182;55.712;37.612;2022-07-29T02:24:17;100046.06;;;16.57;74.63
69460;BME280;57182;55.712;37.612;2022-07-29T02:26:46;100065.22;;;16.60;74.87
69460;BME280;57182;55.712;37.612;2022-07-29T02:29:15;100067.28;;;16.57;75.30
69460;BME280;57182;55.712;37.612;2022-07-29T02:31:45;100031.25;;;16.43;73.87
69460;BME280;57182;55.712;37.612;2022-07-29T02:34:18;100021.50;;;16.55;74.24
69460;BME280;57182;55.712;37.612;2022-07-29T02:36:52;100043.72;;;16.74;73.89
69460;BME280;57182;55.712;37.612;2022-07-29T02:39:22;100045.88;;;16.80;74.00
69460;BME280;57182;55.712;37.612;2022-07-29T02:45:09;100047.81;;;16.78;74.19
69460;BME280;57182;55.712;37.612;2022-07-29T02:47:47;100049.03;;;16.74;74.54
69460;BME280;57182;55.712;37.612;2022-07-29T02:50:30;100051.66;;;16.74;74.87
69460;BME280;57182;55.712;37.612;2022-07-29T02:53:10;100062.16;;;16.76;75.17
69460;BME280;57182;55.712;37.612;2022-07-29T02:58:26;100060.16;;;16.57;75.36
69460;BME280;57182;55.712;37.612;2022-07-29T03:01:02;100038.38;;;16.31;75.73
69460;BME280;57182;55.712;37.612;2022-07-29T03:03:36;100057.41;;;16.48;75.73
69460;BME280;57182;55.712;37.612;2022-07-29T03:06:09;100044.53;;;16.32;75.19
69460;BME280;57182;55.712;37.612;2022-07-29T03:08:59;100035.13;;;16.28;75.38
69460;BME280;57182;55.712;37.612;2022-07-29T03:11:28;100069.09;;;16.34;75.57
69460;BME280;57182;55.712;37.612;2022-07-29T03:14:19;100046.44;;;16.41;75.14
69460;BME280;57182;55.712;37.612;2022-07-29T03:16:48;100044.06;;;16.27;75.21
69460;BME280;57182;55.712;37.612;2022-07-29T03:19:17;100043.56;;;16.33;74.90
69460;BME280;57182;55.712;37.612;2022-07-29T03:21:48;100053.16;;;16.56;74.64
69460;BME280;57182;55.712;37.612;2022-07-29T03:24:46;100038.94;;;16.46;74.99
69460;BME280;57182;55.712;37.612;2022-07-29T03:27:15;100058.38;;;16.58;74.51
69460;BME280;57182;55.712;37.612;2022-07-29T03:29:48;100039.44;;;16.62;74.19
69460;BME280;57182;55.712;37.612;2022-07-29T03:32:17;100021.09;;;16.70;73.61
69460;BME280;57182;55.712;37.612;2022-07-29T03:34:50;100048.19;;;17.06;73.48
69460;BME280;57182;55.712;37.612;2022-07-29T03:37:20;100036.22;;;17.11;72.97
69460;BME280;57182;55.712;37.612;2022-07-29T03:39:49;100029.03;;;17.23;72.34
69460;BME280;57182;55.712;37.612;2022-07-29T03:42:21;100062.16;;;17.49;72.25
69460;BME280;57182;55.712;37.612;2022-07-29T03:48:31;100042.72;;;17.59;72.12
69460;BME280;57182;55.712;37.612;2022-07-29T03:51:36;100070.09;;;18.20;71.08
69460;BME280;57182;55.712;37.612;2022-07-29T03:54:04;100026.75;;;18.30;70.41
69460;BME280;57182;55.712;37.612;2022-07-29T03:56:42;100053.72;;;18.65;69.20
69460;BME280;57182;55.712;37.612;2022-07-29T03:59:55;100031.63;;;18.74;67.87
69460;BME280;57182;55.712;37.612;2022-07-29T04:02:36;100052.72;;;18.75;68.00
69460;BME280;57182;55.712;37.612;2022-07-29T04:05:31;100072.91;;;18.68;68.16
69460;BME280;57182;55.712;37.612;2022-07-29T04:12:18;100042.50;;;18.52;68.13
69460;BME280;57182;55.712;37.612;2022-07-29T04:15:20;100069.78;;;18.54;68.79
69460;BME280;57182;55.712;37.612;2022-07-29T04:18:08;100076.13;;;18.72;68.27
69460;BME280;57182;55.712;37.612;2022-07-29T04:20:44;100056.41;;;18.65;68.32
69460;BME280;57182;55.712;37.612;2022-07-29T04:23:19;100035.97;;;18.84;67.66
69460;BME280;57182;55.712;37.612;2022-07-29T04:26:17;100043.09;;;19.13;66.51
69460;BME280;57182;55.712;37.612;2022-07-29T04:29:11;100067.31;;;19.10;66.33
69460;BME280;57182;55.712;37.612;2022-07-29T04:32:02;100048.41;;;18.84;65.86
69460;BME280;57182;55.712;37.612;2022-07-29T04:34:32;100099.69;;;19.05;66.79
69460;BME280;57182;55.712;37.612;2022-07-29T04:37:27;100093.09;;;18.90;66.37
69460;BME280;57182;55.712;37.612;2022-07-29T04:40:01;100043.81;;;18.96;65.96
69460;BME280;57182;55.712;37.612;2022-07-29T04:43:01;100075.59;;;19.07;65.50
69460;BME280;57182;55.712;37.612;2022-07-29T04:45:34;100071.94;;;19.08;65.26
69460;BME280;57182;55.712;37.612;2022-07-29T04:48:05;100086.94;;;19.18;64.96
69460;BME280;57182;55.712;37.612;2022-07-29T04:50:56;100074.88;;;19.14;64.21
69460;BME280;57182;55.712;37.612;2022-07-29T04:53:29;100068.56;;;19.25;64.53
69460;BME280;57182;55.712;37.612;2022-07-29T04:56:49;100070.81;;;19.29;64.12
69460;BME280;57182;55.712;37.612;2022-07-29T04:59:17;100067.59;;;19.16;64.02
69460;BME280;57182;55.712;37.612;2022-07-29T05:01:52;100066.63;;;19.17;64.44
69460;BME280;57182;55.712;37.612;2022-07-29T05:08:44;100082.72;;;19.35;63.98
69460;BME280;57182;55.712;37.612;2022-07-29T05:12:39;100092.84;;;19.41;63.34
69460;BME280;57182;55.712;37.612;2022-07-29T05:16:10;100077.53;;;19.14;63.93
69460;BME280;57182;55.712;37.612;2022-07-29T05:19:04;100100.66;;;19.52;62.95
69460;BME280;57182;55.712;37.612;2022-07-29T05:22:32;100063.22;;;19.34;62.96
69460;BME280;57182;55.712;37.612;2022-07-29T05:25:51;100111.16;;;19.63;63.08
69460;BME280;57182;55.712;37.612;2022-07-29T05:28:44;100071.06;;;19.65;62.83
69460;BME280;57182;55.712;37.612;2022-07-29T05:31:41;100107.94;;;20.16;61.80
69460;BME280;57182;55.712;37.612;2022-07-29T05:34:38;100067.94;;;20.88;61.66
69460;BME280;57182;55.712;37.612;2022-07-29T05:37:59;100064.34;;;21.75;57.97
69460;BME280;57182;55.712;37.612;2022-07-29T05:40:52;100079.03;;;22.73;57.97
69460;BME280;57182;55.712;37.612;2022-07-29T05:43:37;100088.13;;;23.28;56.06
69460;BME280;57182;55.712;37.612;2022-07-29T05:46:04;100080.59;;;23.88;54.18
69460;BME280;57182;55.712;37.612;2022-07-29T05:49:15;100074.88;;;23.91;52.97
69460;BME280;57182;55.712;37.612;2022-07-29T05:56:24;100071.63;;;25.12;49.39
69460;BME280;57182;55.712;37.612;2022-07-29T05:59:39;100058.72;;;25.30;48.17
69460;BME280;57182;55.712;37.612;2022-07-29T06:02:42;100065.19;;;25.96;46.61
69460;BME280;57182;55.712;37.612;2022-07-29T06:05:52;100083.81;;;25.45;45.19
69460;BME280;57182;55.712;37.612;2022-07-29T06:22:18;100065.56;;;27.78;40.33
69460;BME280;57182;55.712;37.612;2022-07-29T06:24:52;100053.75;;;28.14;39.54
69460;BME280;57182;55.712;37.612;2022-07-29T06:35:26;100062.84;;;29.07;37.30
69460;BME280;57182;55.712;37.612;2022-07-29T06:38:10;100067.41;;;29.13;38.22
69460;BME280;57182;55.712;37.612;2022-07-29T06:41:37;100041.91;;;29.36;35.64
69460;BME280;57182;55.712;37.612;2022-07-29T06:44:32;100039.75;;;29.05;37.01
69460;BME280;57182;55.712;37.612;2022-07-29T06:47:05;100027.00;;;28.66;37.80
69460;BME280;57182;55.712;37.612;2022-07-29T06:49:59;100044.25;;;28.18;38.31
69460;BME280;57182;55.712;37.612;2022-07-29T06:52:35;100041.97;;;28.75;36.67
69460;BME280;57182;55.712;37.612;2022-07-29T06:55:17;100063.31;;;29.70;34.26
69460;BME280;57182;55.712;37.612;2022-07-29T06:58:04;100047.47;;;29.73;34.86
69460;BME280;57182;55.712;37.612;2022-07-29T07:01:03;100046.78;;;28.93;35.73
69460;BME280;57182;55.712;37.612;2022-07-29T07:03:55;100060.25;;;28.66;35.29
69460;BME280;57182;55.712;37.612;2022-07-29T07:06:42;100050.63;;;29.31;34.62
69460;BME280;57182;55.712;37.612;2022-07-29T07:09:16;100050.00;;;29.68;34.43
69460;BME280;57182;55.712;37.612;2022-07-29T07:12:19;100044.72;;;29.08;34.29
69460;BME280;57182;55.712;37.612;2022-07-29T07:14:55;100037.03;;;29.77;32.94
69460;BME280;57182;55.712;37.612;2022-07-29T07:17:29;100057.34;;;30.83;32.04
69460;BME280;57182;55.712;37.612;2022-07-29T07:20:07;100054.94;;;31.06;31.94
69460;BME280;57182;55.712;37.612;2022-07-29T07:23:08;100059.34;;;28.59;33.64
69460;BME280;57182;55.712;37.612;2022-07-29T07:25:46;100059.38;;;28.12;34.45
69460;BME280;57182;55.712;37.612;2022-07-29T07:28:31;100070.78;;;29.28;33.00
69460;BME280;57182;55.712;37.612;2022-07-29T07:31:38;100058.72;;;29.90;31.50
69460;BME280;57182;55.712;37.612;2022-07-29T07:34:31;100065.94;;;30.22;31.42
69460;BME280;57182;55.712;37.612;2022-07-29T07:37:19;100061.44;;;29.70;32.28
69460;BME280;57182;55.712;37.612;2022-07-29T07:39:47;100056.44;;;29.94;32.04
69460;BME280;57182;55.712;37.612;2022-07-29T07:42:16;100062.72;;;30.51;32.05
69460;BME280;57182;55.712;37.612;2022-07-29T07:45:01;100068.78;;;30.85;31.54
69460;BME280;57182;55.712;37.612;2022-07-29T07:48:18;100048.25;;;30.13;31.36
69460;BME280;57182;55.712;37.612;2022-07-29T07:51:43;100078.06;;;30.71;30.63
69460;BME280;57182;55.712;37.612;2022-07-29T08:22:53;100060.28;;;31.68;26.78
69460;BME280;57182;55.712;37.612;2022-07-29T09:09:32;100057.38;;;31.70;27.42
69460;BME280;57182;55.712;37.612;2022-07-29T09:59:10;100081.28;;;32.41;26.35
69460;BME280;57182;55.712;37.612;2022-07-29T13:55:17;100033.81;;;26.82;34.68
69460;BME280;57182;55.712;37.612;2022-07-29T14:03:05;100046.50;;;27.31;33.83
69460;BME280;57182;55.712;37.612;2022-07-29T14:07:15;100034.97;;;26.95;34.59
69460;BME280;57182;55.712;37.612;2022-07-29T14:15:27;100035.19;;;26.78;35.33
69460;BME280;57182;55.712;37.612;2022-07-29T14:29:40;100032.53;;;26.28;35.63
69460;BME280;57182;55.712;37.612;2022-07-29T14:41:49;100019.50;;;25.73;35.49
69460;BME280;57182;55.712;37.612;2022-07-29T14:50:32;100016.63;;;25.45;36.73
69460;BME280;57182;55.712;37.612;2022-07-29T14:53:59;100020.25;;;25.30;37.19
69460;BME280;57182;55.712;37.612;2022-07-29T15:01:12;100009.25;;;24.79;37.87
69460;BME280;57182;55.712;37.612;2022-07-29T15:04:58;100009.25;;;24.79;37.75
69460;BME280;57182;55.712;37.612;2022-07-29T15:29:09;99989.41;;;24.35;38.16
69460;BME280;57182;55.712;37.612;2022-07-29T15:33:30;100022.53;;;24.50;38.20
69460;BME280;57182;55.712;37.612;2022-07-29T15:49:14;99998.44;;;23.95;40.11
69460;BME280;57182;55.712;37.612;2022-07-29T16:05:54;100064.47;;;23.96;44.73
69460;BME280;57182;55.712;37.612;2022-07-29T16:21:23;100065.88;;;23.11;45.80
69460;BME280;57182;55.712;37.612;2022-07-29T17:25:50;100100.09;;;21.49;50.21
69460;BME280;57182;55.712;37.612;2022-07-29T17:29:50;100111.28;;;21.52;51.73
69460;BME280;57182;55.712;37.612;2022-07-29T18:08:09;100113.19;;;20.62;52.64
69460;BME280;57182;55.712;37.612;2022-07-29T18:16:19;100123.72;;;20.63;53.30
69460;BME280;57182;55.712;37.612;2022-07-29T18:20:17;100154.84;;;20.73;53.35
69460;BME280;57182;55.712;37.612;2022-07-29T18:27:44;100119.09;;;20.38;53.69
69460;BME280;57182;55.712;37.612;2022-07-29T18:31:01;100155.25;;;20.50;53.03
69460;BME280;57182;55.712;37.612;2022-07-29T18:37:34;100131.41;;;20.49;55.16
69460;BME280;57182;55.712;37.612;2022-07-29T19:06:23;100149.00;;;20.23;54.79
69460;BME280;57182;55.712;37.612;2022-07-29T19:09:09;100129.59;;;20.03;53.97
69460;BME280;57182;55.712;37.612;2022-07-29T19:12:40;100135.31;;;20.08;54.80
69460;BME280;57182;55.712;37.612;2022-07-29T19:15:29;100144.13;;;20.28;54.00
69460;BME280;57182;55.712;37.612;2022-07-29T19:19:06;100139.63;;;20.28;54.90
69460;BME280;57182;55.712;37.612;2022-07-29T19:22:35;100148.03;;;20.33;54.57
69460;BME280;57182;55.712;37.612;2022-07-29T19:25:30;100137.38;;;20.33;54.50
69460;BME280;57182;55.712;37.612;2022-07-29T19:28:21;100112.06;;;20.37;54.67
69460;BME280;57182;55.712;37.612;2022-07-29T19:30:53;100162.78;;;20.55;54.57
69460;BME280;57182;55.712;37.612;2022-07-29T19:33:38;100122.91;;;20.26;55.28
69460;BME280;57182;55.712;37.612;2022-07-29T19:36:35;100124.75;;;20.26;54.79
69460;BME280;57182;55.712;37.612;2022-07-29T19:39:07;100142.44;;;20.17;55.14
69460;BME280;57182;55.712;37.612;2022-07-29T19:41:35;100142.16;;;20.20;55.41
69460;BME280;57182;55.712;37.612;2022-07-29T19:44:05;100141.78;;;20.05;55.54
69460;BME280;57182;55.712;37.612;2022-07-29T19:46:34;100130.72;;;19.91;55.94
69460;BME280;57182;55.712;37.612;2022-07-29T19:49:04;100139.44;;;19.83;55.77
69460;BME280;57182;55.712;37.612;2022-07-29T19:51:38;100133.44;;;19.72;56.63
69460;BME280;57182;55.712;37.612;2022-07-29T19:54:05;100118.19;;;19.55;56.94
69460;BME280;57182;55.712;37.612;2022-07-29T19:56:35;100137.38;;;19.58;57.05
69460;BME280;57182;55.712;37.612;2022-07-29T19:59:12;100122.66;;;19.44;57.32
69460;BME280;57182;55.712;37.612;2022-07-29T20:01:42;100163.31;;;19.56;57.86
69460;BME280;57182;55.712;37.612;2022-07-29T20:04:15;100151.81;;;19.36;57.90
69460;BME280;57182;55.712;37.612;2022-07-29T20:06:43;100142.28;;;19.34;58.52
69460;BME280;57182;55.712;37.612;2022-07-29T20:09:11;100143.69;;;19.28;58.45
69460;BME280;57182;55.712;37.612;2022-07-29T20:11:49;100131.50;;;19.26;58.75
69460;BME280;57182;55.712;37.612;2022-07-29T20:14:22;100164.69;;;19.31;58.68
69460;BME280;57182;55.712;37.612;2022-07-29T20:16:52;100164.97;;;19.28;58.92
69460;BME280;57182;55.712;37.612;2022-07-29T20:19:25;100133.69;;;19.11;59.27
69460;BME280;57182;55.712;37.612;2022-07-29T20:21:59;100149.28;;;19.25;59.23
69460;BME280;57182;55.712;37.612;2022-07-29T20:24:34;100144.22;;;19.22;59.24
69460;BME280;57182;55.712;37.612;2022-07-29T20:27:06;100147.59;;;19.15;59.36
69460;BME280;57182;55.712;37.612;2022-07-29T20:29:39;100148.84;;;19.11;59.43
69460;BME280;57182;55.712;37.612;2022-07-29T20:32:07;100171.25;;;19.18;59.60
69460;BME280;57182;55.712;37.612;2022-07-29T20:34:52;100155.13;;;19.19;59.78
69460;BME280;57182;55.712;37.612;2022-07-29T20:37:31;100156.25;;;19.17;60.01
69460;BME280;57182;55.712;37.612;2022-07-29T20:40:18;100160.03;;;19.14;60.20
69460;BME280;57182;55.712;37.612;2022-07-29T20:42:48;100182.47;;;19.21;59.95
69460;BME280;57182;55.712;37.612;2022-07-29T20:45:17;100161.16;;;19.02;60.56
69460;BME280;57182;55.712;37.612;2022-07-29T20:47:47;100161.00;;;18.94;60.55
69460;BME280;57182;55.712;37.612;2022-07-29T20:50:20;100150.50;;;18.83;60.86
69460;BME280;57182;55.712;37.612;2022-07-29T20:52:55;100168.53;;;18.89;61.69
69460;BME280;57182;55.712;37.612;2022-07-29T20:55:22;100173.75;;;18.91;61.16
69460;BME280;57182;55.712;37.612;2022-07-29T20:58:07;100169.91;;;18.74;61.52
69460;BME280;57182;55.712;37.612;2022-07-29T21:00:35;100194.44;;;18.87;61.69
69460;BME280;57182;55.712;37.612;2022-07-29T21:03:05;100173.28;;;18.76;61.64
69460;BME280;57182;55.712;37.612;2022-07-29T21:05:36;100183.78;;;18.77;61.78
69460;BME280;57182;55.712;37.612;2022-07-29T21:08:09;100189.22;;;18.76;62.12
69460;BME280;57182;55.712;37.612;2022-07-29T21:10:48;100213.59;;;18.81;62.22
69460;BME280;57182;55.712;37.612;2022-07-29T21:13:19;100206.72;;;18.69;62.56
69460;BME280;57182;55.712;37.612;2022-07-29T21:15:57;100201.78;;;18.55;62.85
69460;BME280;57182;55.712;37.612;2022-07-29T21:18:34;100178.00;;;18.42;63.32
69460;BME280;57182;55.712;37.612;2022-07-29T21:21:04;100182.31;;;18.34;62.87
69460;BME280;57182;55.712;37.612;2022-07-29T21:23:57;100224.19;;;18.62;63.97
69460;BME280;57182;55.712;37.612;2022-07-29T21:26:27;100227.38;;;18.56;62.80
69460;BME280;57182;55.712;37.612;2022-07-29T21:28:55;100194.81;;;18.43;62.75
69460;BME280;57182;55.712;37.612;2022-07-29T21:31:22;100217.53;;;18.47;62.70
69460;BME280;57182;55.712;37.612;2022-07-29T21:37:53;100231.84;;;18.55;61.95
69460;BME280;57182;55.712;37.612;2022-07-29T21:40:22;100198.72;;;18.39;62.02
69460;BME280;57182;55.712;37.612;2022-07-29T21:43:04;100206.44;;;18.42;62.07
69460;BME280;57182;55.712;37.612;2022-07-29T21:45:38;100229.75;;;18.59;61.69
69460;BME280;57182;55.712;37.612;2022-07-29T21:48:12;100216.06;;;18.43;61.65
69460;BME280;57182;55.712;37.612;2022-07-29T21:50:44;100219.13;;;18.38;62.08
69460;BME280;57182;55.712;37.612;2022-07-29T21:53:14;100233.78;;;18.33;61.65
69460;BME280;57182;55.712;37.612;2022-07-29T21:55:51;100215.59;;;18.28;61.35
69460;BME280;57182;55.712;37.612;2022-07-29T21:58:26;100196.38;;;18.24;60.90
69460;BME280;57182;55.712;37.612;2022-07-29T22:01:00;100244.59;;;18.41;60.92
69460;BME280;57182;55.712;37.612;2022-07-29T22:03:31;100231.38;;;18.30;60.74
69460;BME280;57182;55.712;37.612;2022-07-29T22:06:00;100216.09;;;18.22;60.89
69460;BME280;57182;55.712;37.612;2022-07-29T22:08:30;100244.31;;;18.34;60.71
69460;BME280;57182;55.712;37.612;2022-07-29T22:11:03;100223.50;;;18.18;61.09
69460;BME280;57182;55.712;37.612;2022-07-29T22:13:33;100232.91;;;18.22;60.83
69460;BME280;57182;55.712;37.612;2022-07-29T22:16:33;100248.78;;;18.34;61.29
69460;BME280;57182;55.712;37.612;2022-07-29T22:19:00;100241.84;;;18.21;60.96
69460;BME280;57182;55.712;37.612;2022-07-29T22:21:33;100261.22;;;18.33;60.72
69460;BME280;57182;55.712;37.612;2022-07-29T22:24:00;100247.72;;;18.25;60.76
69460;BME280;57182;55.712;37.612;2022-07-29T22:26:36;100235.66;;;18.11;61.13
69460;BME280;57182;55.712;37.612;2022-07-29T22:29:05;100227.06;;;18.08;61.24
69460;BME280;57182;55.712;37.612;2022-07-29T22:31:40;100240.97;;;18.11;62.27
69460;BME280;57182;55.712;37.612;2022-07-29T22:34:07;100243.22;;;18.16;60.70
69460;BME280;57182;55.712;37.612;2022-07-29T22:36:39;100228.38;;;18.13;59.86
69460;BME280;57182;55.712;37.612;2022-07-29T22:39:09;100253.50;;;18.09;59.33
69460;BME280;57182;55.712;37.612;2022-07-29T22:41:41;100247.63;;;18.06;59.27
69460;BME280;57182;55.712;37.612;2022-07-29T22:44:09;100260.97;;;18.15;59.08
69460;BME280;57182;55.712;37.612;2022-07-29T22:46:37;100244.63;;;17.99;58.82
69460;BME280;57182;55.712;37.612;2022-07-29T22:49:05;100270.53;;;18.07;58.87
69460;BME280;57182;55.712;37.612;2022-07-29T22:51:35;100260.88;;;17.85;58.68
69460;BME280;57182;55.712;37.612;2022-07-29T22:54:03;100252.47;;;17.80;58.75
69460;BME280;57182;55.712;37.612;2022-07-29T22:56:32;100258.28;;;17.74;58.65
69460;BME280;57182;55.712;37.612;2022-07-29T22:58:59;100259.13;;;17.75;58.27
69460;BME280;57182;55.712;37.612;2022-07-29T23:01:29;100269.28;;;17.70;58.58
69460;BME280;57182;55.712;37.612;2022-07-29T23:04:04;100258.59;;;17.60;58.30
69460;BME280;57182;55.712;37.612;2022-07-29T23:06:34;100295.06;;;17.79;58.46
69460;BME280;57182;55.712;37.612;2022-07-29T23:09:04;100258.44;;;17.62;58.31
69460;BME280;57182;55.712;37.612;2022-07-29T23:11:32;100271.34;;;17.66;58.09
69460;BME280;57182;55.712;37.612;2022-07-29T23:13:59;100290.81;;;17.87;58.13
69460;BME280;57182;55.712;37.612;2022-07-29T23:16:27;100291.31;;;17.81;57.85
69460;BME280;57182;55.712;37.612;2022-07-29T23:18:55;100273.81;;;17.79;57.37
69460;BME280;57182;55.712;37.612;2022-07-29T23:21:23;100286.81;;;17.93;57.09
69460;BME280;57182;55.712;37.612;2022-07-29T23:23:57;100278.16;;;17.80;57.20
69460;BME280;57182;55.712;37.612;2022-07-29T23:26:28;100266.88;;;17.67;57.46
69460;BME280;57182;55.712;37.612;2022-07-29T23:28:58;100288.81;;;17.69;57.65
69460;BME280;57182;55.712;37.612;2022-07-29T23:31:29;100269.91;;;17.62;57.61
69460;BME280;57182;55.712;37.612;2022-07-29T23:34:03;100285.00;;;17.62;57.95
69460;BME280;57182;55.712;37.612;2022-07-29T23:36:35;100267.25;;;17.51;57.99
69460;BME280;57182;55.712;37.612;2022-07-29T23:39:04;100247.63;;;17.42;57.66
69460;BME280;57182;55.712;37.612;2022-07-29T23:41:33;100271.25;;;17.56;57.70
69460;BME280;57182;55.712;37.612;2022-07-29T23:44:04;100295.75;;;17.60;58.45
69460;BME280;57182;55.712;37.612;2022-07-29T23:46:32;100270.28;;;17.46;58.05
69460;BME280;57182;55.712;37.612;2022-07-29T23:49:04;100257.50;;;17.40;58.44
69460;BME280;57182;55.712;37.612;2022-07-29T23:51:34;100279.94;;;17.47;58.80
69460;BME280;57182;55.712;37.612;2022-07-29T23:54:01;100267.66;;;17.35;58.72
69460;BME280;57182;55.712;37.612;2022-07-29T23:56:32;100243.56;;;17.27;58.55
69460;BME280;57182;55.712;37.612;2022-07-29T23:59:02;100253.59;;;17.24;58.92
